sensor_id;sensor_type;location;lat;lon;timestamp;noise_LAeq;noise_LA_min;noise_LA_max;noise_LA01;noise_LA95
43385;Laerm;28988;48.042;7.584;2023-01-10T00:01:13;90.12;-14.66;98.60;;
43385;Laerm;28988;48.042;7.584;2023-01-10T00:03:38;90.13;-14.66;98.60;;
43385;Laerm;28988;48.042;7.584;2023-01-10T00:06:03;90.12;-14.66;98.60;;
43385;Laerm;28988;48.042;7.584;2023-01-10T00:08:28;90.13;-16.02;98.60;;
43385;Laerm;28988;48.042;7.584;2023-01-10T00:10:53;90.13;-20.60;98.76;;
43385;Laerm;28988;48.042;7.584;2023-01-10T00:13:19;90.14;-14.34;98.76;;
43385;Laerm;28988;48.042;7.584;2023-01-10T00:15:47;90.14;-25.06;98.80;;
43385;Laerm;28988;48.042;7.584;2023-01-10T00:18:12;90.16;-55.00;99.28;;
43385;Laerm;28988;48.042;7.584;2023-01-10T00:20:37;90.29;-25.02;99.00;;
43385;Laerm;28988;48.042;7.584;2023-01-10T00:23:02;90.56;-38.13;99.64;;
43385;Laerm;28988;48.042;7.584;2023-01-10T00:25:28;90.73;-25.58;99.82;;
43385;Laerm;28988;48.042;7.584;2023-01-10T00:27:54;91.04;-30.65;100.67;;
43385;Laerm;28988;48.042;7.584;2023-01-10T00:30:45;91.74;-27.64;101.49;;
43385;Laerm;28988;48.042;7.584;2023-01-10T00:33:11;92.93;-33.41;101.99;;
43385;Laerm;28988;48.042;7.584;2023-01-10T00:35:43;94.36;-18.55;103.50;;
43385;Laerm;28988;48.042;7.584;2023-01-10T00:38:08;97.15;-60.87;105.23;;
43385;Laerm;28988;48.042;7.584;2023-01-10T00:40:34;99.40;-18.29;105.21;;
43385;Laerm;28988;48.042;7.584;2023-01-10T00:42:59;100.39;-14.61;104.98;;
43385;Laerm;28988;48.042;7.584;2023-01-10T00:45:46;99.50;-42.25;105.09;;
43385;Laerm;28988;48.042;7.584;2023-01-10T00:48:15;96.26;-25.74;106.05;;
43385;Laerm;28988;48.042;7.584;2023-01-10T00:50:41;92.25;-44.60;103.63;;
43385;Laerm;28988;48.042;7.584;2023-01-10T00:53:06;90.67;-51.56;102.35;;
43385;Laerm;28988;48.042;7.584;2023-01-10T00:55:32;89.89;-25.45;101.75;;
43385;Laerm;28988;48.042;7.584;2023-01-10T00:57:57;89.40;-27.01;102.43;;
43385;Laerm;28988;48.042;7.584;2023-01-10T01:00:22;89.22;-24.41;103.24;;
43385;Laerm;28988;48.042;7.584;2023-01-10T01:02:47;89.04;-57.90;102.07;;
43385;Laerm;28988;48.042;7.584;2023-01-10T01:05:14;89.11;-23.70;102.39;;
43385;Laerm;28988;48.042;7.584;2023-01-10T01:07:39;89.49;-28.53;102.48;;
43385;Laerm;28988;48.042;7.584;2023-01-10T01:10:04;89.53;-29.65;102.60;;
43385;Laerm;28988;48.042;7.584;2023-01-10T01:13:13;89.06;-36.10;101.07;;
43385;Laerm;28988;48.042;7.584;2023-01-10T01:15:38;89.35;-32.45;101.33;;
43385;Laerm;28988;48.042;7.584;2023-01-10T01:18:04;89.79;-29.28;102.80;;
43385;Laerm;28988;48.042;7.584;2023-01-10T01:20:29;90.65;-30.72;103.44;;
43385;Laerm;28988;48.042;7.584;2023-01-10T01:22:55;91.65;-35.40;102.31;;
43385;Laerm;28988;48.042;7.584;2023-01-10T01:25:20;96.51;-23.60;104.89;;
43385;Laerm;28988;48.042;7.584;2023-01-10T01:27:45;100.05;-33.25;105.58;;
43385;Laerm;28988;48.042;7.584;2023-01-10T01:30:10;95.88;-25.82;105.31;;
43385;Laerm;28988;48.042;7.584;2023-01-10T01:32:36;91.61;-18.38;101.22;;
43385;Laerm;28988;48.042;7.584;2023-01-10T01:35:01;90.56;-21.62;99.81;;
43385;Laerm;28988;48.042;7.584;2023-01-10T01:37:27;90.19;-23.88;99.24;;
43385;Laerm;28988;48.042;7.584;2023-01-10T01:39:52;90.15;-21.54;99.16;;
43385;Laerm;28988;48.042;7.584;2023-01-10T01:45:02;90.13;-14.85;98.70;;
43385;Laerm;28988;48.042;7.584;2023-01-10T01:47:30;90.12;-14.85;98.71;;
43385;Laerm;28988;48.042;7.584;2023-01-10T01:49:55;90.13;-16.02;98.60;;
43385;Laerm;28988;48.042;7.584;2023-01-10T01:52:22;90.13;-14.85;98.60;;
43385;Laerm;28988;48.042;7.584;2023-01-10T01:54:49;90.13;-6.41;98.60;;
43385;Laerm;28988;48.042;7.584;2023-01-10T01:57:16;90.12;-14.66;98.60;;
43385;Laerm;28988;48.042;7.584;2023-01-10T01:59:44;90.13;-14.85;98.60;;
43385;Laerm;28988;48.042;7.584;2023-01-10T02:02:15;90.13;-14.85;98.60;;
43385;Laerm;28988;48.042;7.584;2023-01-10T02:04:45;90.13;-14.66;98.60;;
43385;Laerm;28988;48.042;7.584;2023-01-10T02:07:13;90.13;-16.02;98.60;;
43385;Laerm;28988;48.042;7.584;2023-01-10T02:12:03;90.12;-17.33;98.60;;
43385;Laerm;28988;48.042;7.584;2023-01-10T02:14:29;90.13;-20.19;98.60;;
43385;Laerm;28988;48.042;7.584;2023-01-10T02:16:55;90.12;-16.02;98.60;;
43385;Laerm;28988;48.042;7.584;2023-01-10T02:19:23;90.13;-14.66;98.60;;
43385;Laerm;28988;48.042;7.584;2023-01-10T02:27:21;90.13;-17.33;98.60;;
43385;Laerm;28988;48.042;7.584;2023-01-10T02:32:35;90.13;-16.02;98.60;;
43385;Laerm;28988;48.042;7.584;2023-01-10T02:35:07;90.13;-37.56;98.60;;
43385;Laerm;28988;48.042;7.584;2023-01-10T02:40:06;90.13;-17.33;98.60;;
43385;Laerm;28988;48.042;7.584;2023-01-10T02:42:36;90.13;-14.66;98.60;;
43385;Laerm;28988;48.042;7.584;2023-01-10T02:47:47;90.13;-16.02;98.60;;
43385;Laerm;28988;48.042;7.584;2023-01-10T02:50:55;90.12;-42.24;98.60;;
43385;Laerm;28988;48.042;7.584;2023-01-10T02:53:43;90.13;-17.33;98.60;;
43385;Laerm;28988;48.042;7.584;2023-01-10T03:03:46;90.13;-16.02;98.60;;
43385;Laerm;28988;48.042;7.584;2023-01-10T03:11:12;90.13;-14.85;98.60;;
43385;Laerm;28988;48.042;7.584;2023-01-10T03:13:45;90.13;-14.85;98.60;;
43385;Laerm;28988;48.042;7.584;2023-01-10T03:16:14;90.13;-14.85;98.60;;
43385;Laerm;28988;48.042;7.584;2023-01-10T03:18:42;90.13;-22.78;98.60;;
43385;Laerm;28988;48.042;7.584;2023-01-10T03:21:09;90.13;-22.78;98.60;;
43385;Laerm;28988;48.042;7.584;2023-01-10T03:23:35;90.12;-22.78;98.60;;
43385;Laerm;28988;48.042;7.584;2023-01-10T03:26:01;90.13;-14.66;98.60;;
43385;Laerm;28988;48.042;7.584;2023-01-10T03:30:56;90.13;-21.54;98.60;;
43385;Laerm;28988;48.042;7.584;2023-01-10T03:33:27;90.13;-17.33;98.60;;
43385;Laerm;28988;48.042;7.584;2023-01-10T03:41:20;90.13;-14.85;98.60;;
43385;Laerm;28988;48.042;7.584;2023-01-10T03:44:12;90.13;-16.02;98.60;;
43385;Laerm;28988;48.042;7.584;2023-01-10T03:47:04;90.13;-17.33;98.60;;
43385;Laerm;28988;48.042;7.584;2023-01-10T03:49:31;90.13;-16.02;98.60;;
43385;Laerm;28988;48.042;7.584;2023-01-10T03:51:57;90.13;-14.85;98.60;;
43385;Laerm;28988;48.042;7.584;2023-01-10T03:54:23;90.13;-21.54;98.60;;
43385;Laerm;28988;48.042;7.584;2023-01-10T03:56:49;90.13;-37.56;98.60;;
43385;Laerm;28988;48.042;7.584;2023-01-10T03:59:16;90.13;-17.33;98.60;;
43385;Laerm;28988;48.042;7.584;2023-01-10T04:01:41;90.12;-36.41;98.60;;
43385;Laerm;28988;48.042;7.584;2023-01-10T04:04:06;90.14;-16.02;98.60;;
43385;Laerm;28988;48.042;7.584;2023-01-10T04:06:32;90.13;-14.85;98.60;;
43385;Laerm;28988;48.042;7.584;2023-01-10T04:08:57;90.13;-36.41;98.60;;
43385;Laerm;28988;48.042;7.584;2023-01-10T04:11:22;90.14;-36.41;98.60;;
43385;Laerm;28988;48.042;7.584;2023-01-10T04:13:47;90.14;-37.56;98.60;;
43385;Laerm;28988;48.042;7.584;2023-01-10T04:16:12;90.13;-42.24;98.60;;
43385;Laerm;28988;48.042;7.584;2023-01-10T04:18:38;90.13;-42.24;98.60;;
43385;Laerm;28988;48.042;7.584;2023-01-10T04:21:03;90.13;-16.02;98.60;;
43385;Laerm;28988;48.042;7.584;2023-01-10T04:23:28;90.13;-16.02;98.60;;
43385;Laerm;28988;48.042;7.584;2023-01-10T04:25:53;90.14;-36.41;98.60;;
43385;Laerm;28988;48.042;7.584;2023-01-10T04:28:18;90.13;-37.56;98.60;;
43385;Laerm;28988;48.042;7.584;2023-01-10T04:30:44;90.14;-14.85;98.60;;
43385;Laerm;28988;48.042;7.584;2023-01-10T04:33:09;90.13;-16.02;98.60;;
43385;Laerm;28988;48.042;7.584;2023-01-10T04:35:35;90.14;-15.33;98.60;;
43385;Laerm;28988;48.042;7.584;2023-01-10T04:38:00;90.13;-42.24;98.60;;
43385;Laerm;28988;48.042;7.584;2023-01-10T04:40:26;90.13;-36.41;98.60;;
43385;Laerm;28988;48.042;7.584;2023-01-10T04:42:51;90.14;-21.54;98.60;;
43385;Laerm;28988;48.042;7.584;2023-01-10T04:45:16;90.14;-42.24;98.60;;
43385;Laerm;28988;48.042;7.584;2023-01-10T04:47:47;90.13;-22.78;98.60;;
43385;Laerm;28988;48.042;7.584;2023-01-10T04:50:12;90.13;-16.02;98.60;;
43385;Laerm;28988;48.042;7.584;2023-01-10T04:52:38;90.13;-42.24;98.60;;
43385;Laerm;28988;48.042;7.584;2023-01-10T04:55:05;90.13;-37.56;98.60;;
43385;Laerm;28988;48.042;7.584;2023-01-10T04:57:30;90.13;-42.24;98.60;;
43385;Laerm;28988;48.042;7.584;2023-01-10T04:59:55;90.14;-21.54;98.60;;
43385;Laerm;28988;48.042;7.584;2023-01-10T05:02:20;90.14;-16.02;98.60;;
43385;Laerm;28988;48.042;7.584;2023-01-10T05:04:45;90.13;-42.24;98.60;;
43385;Laerm;28988;48.042;7.584;2023-01-10T05:07:11;90.14;-17.33;98.60;;
43385;Laerm;28988;48.042;7.584;2023-01-10T05:09:36;90.13;-21.54;98.60;;
43385;Laerm;28988;48.042;7.584;2023-01-10T05:12:01;90.14;-14.85;98.60;;
43385;Laerm;28988;48.042;7.584;2023-01-10T05:14:26;90.13;-17.33;98.60;;
43385;Laerm;28988;48.042;7.584;2023-01-10T05:16:51;90.14;-17.33;98.60;;
43385;Laerm;28988;48.042;7.584;2023-01-10T05:19:17;90.13;-17.33;98.60;;
43385;Laerm;28988;48.042;7.584;2023-01-10T05:21:42;90.14;-17.33;98.60;;
43385;Laerm;28988;48.042;7.584;2023-01-10T05:24:07;90.14;-42.24;98.60;;
43385;Laerm;28988;48.042;7.584;2023-01-10T05:26:32;90.13;-37.56;98.60;;
43385;Laerm;28988;48.042;7.584;2023-01-10T05:28:58;90.13;-21.54;98.60;;
43385;Laerm;28988;48.042;7.584;2023-01-10T05:31:23;90.14;-37.56;98.60;;
43385;Laerm;28988;48.042;7.584;2023-01-10T05:33:49;90.13;-42.24;98.60;;
43385;Laerm;28988;48.042;7.584;2023-01-10T05:36:14;90.14;-16.02;98.60;;
43385;Laerm;28988;48.042;7.584;2023-01-10T05:38:40;90.13;-37.56;98.60;;
43385;Laerm;28988;48.042;7.584;2023-01-10T05:41:05;90.13;-42.24;98.60;;
43385;Laerm;28988;48.042;7.584;2023-01-10T05:43:30;90.13;-16.02;98.60;;
43385;Laerm;28988;48.042;7.584;2023-01-10T05:45:56;90.13;-37.56;98.60;;
43385;Laerm;28988;48.042;7.584;2023-01-10T05:48:21;90.14;-22.78;98.60;;
43385;Laerm;28988;48.042;7.584;2023-01-10T05:50:48;90.13;-15.33;98.60;;
43385;Laerm;28988;48.042;7.584;2023-01-10T05:53:13;90.13;-42.24;98.60;;
43385;Laerm;28988;48.042;7.584;2023-01-10T05:55:38;90.14;-14.85;98.60;;
43385;Laerm;28988;48.042;7.584;2023-01-10T05:58:03;90.13;-14.85;98.60;;
43385;Laerm;28988;48.042;7.584;2023-01-10T06:00:29;90.14;-14.85;98.60;;
43385;Laerm;28988;48.042;7.584;2023-01-10T06:02:54;90.13;-37.56;98.60;;
43385;Laerm;28988;48.042;7.584;2023-01-10T06:05:20;90.14;-20.19;98.60;;
43385;Laerm;28988;48.042;7.584;2023-01-10T06:07:45;90.13;-16.02;98.60;;
43385;Laerm;28988;48.042;7.584;2023-01-10T06:10:10;90.13;-17.33;98.60;;
43385;Laerm;28988;48.042;7.584;2023-01-10T06:12:38;90.14;-36.41;98.60;;
43385;Laerm;28988;48.042;7.584;2023-01-10T06:15:03;90.13;-42.24;98.60;;
43385;Laerm;28988;48.042;7.584;2023-01-10T06:17:28;90.13;-16.02;98.60;;
43385;Laerm;28988;48.042;7.584;2023-01-10T06:19:53;90.14;-37.56;98.60;;
43385;Laerm;28988;48.042;7.584;2023-01-10T06:22:18;90.13;-17.33;98.60;;
43385;Laerm;28988;48.042;7.584;2023-01-10T06:24:44;90.14;-15.25;98.60;;
43385;Laerm;28988;48.042;7.584;2023-01-10T06:27:09;90.14;-21.54;98.60;;
43385;Laerm;28988;48.042;7.584;2023-01-10T06:29:34;90.13;-17.33;98.60;;
43385;Laerm;28988;48.042;7.584;2023-01-10T06:31:59;90.13;-14.85;98.60;;
43385;Laerm;28988;48.042;7.584;2023-01-10T06:34:24;90.14;-17.33;98.60;;
43385;Laerm;28988;48.042;7.584;2023-01-10T06:36:50;90.13;-16.02;98.60;;
43385;Laerm;28988;48.042;7.584;2023-01-10T06:39:15;90.14;-42.24;98.60;;
43385;Laerm;28988;48.042;7.584;2023-01-10T06:41:40;90.13;-37.56;98.60;;
43385;Laerm;28988;48.042;7.584;2023-01-10T06:44:05;90.13;-16.02;98.60;;
43385;Laerm;28988;48.042;7.584;2023-01-10T06:46:30;90.14;-42.24;98.60;;
43385;Laerm;28988;48.042;7.584;2023-01-10T06:48:56;90.14;-17.33;98.60;;
43385;Laerm;28988;48.042;7.584;2023-01-10T06:51:21;90.13;-14.85;98.60;;
43385;Laerm;28988;48.042;7.584;2023-01-10T06:53:46;90.14;-17.33;98.60;;
43385;Laerm;28988;48.042;7.584;2023-01-10T06:56:11;90.13;-16.02;98.60;;
43385;Laerm;28988;48.042;7.584;2023-01-10T06:58:37;90.14;-36.41;98.60;;
43385;Laerm;28988;48.042;7.584;2023-01-10T07:01:04;90.13;-17.33;98.60;;
43385;Laerm;28988;48.042;7.584;2023-01-10T07:03:29;90.13;-17.33;98.60;;
43385;Laerm;28988;48.042;7.584;2023-01-10T07:05:54;90.14;-42.24;98.60;;
43385;Laerm;28988;48.042;7.584;2023-01-10T07:08:19;90.13;-16.02;98.60;;
43385;Laerm;28988;48.042;7.584;2023-01-10T07:10:45;90.13;-17.33;98.60;;
43385;Laerm;28988;48.042;7.584;2023-01-10T07:13:10;90.14;-16.02;98.60;;
43385;Laerm;28988;48.042;7.584;2023-01-10T07:15:35;90.14;-16.02;98.71;;
43385;Laerm;28988;48.042;7.584;2023-01-10T07:18:00;90.13;-17.33;98.60;;
43385;Laerm;28988;48.042;7.584;2023-01-10T07:20:26;90.13;-23.13;98.60;;
43385;Laerm;28988;48.042;7.584;2023-01-10T07:22:52;90.14;-16.02;98.60;;
43385;Laerm;28988;48.042;7.584;2023-01-10T07:25:17;90.13;-42.24;98.60;;
43385;Laerm;28988;48.042;7.584;2023-01-10T07:27:42;90.14;-16.02;98.60;;
43385;Laerm;28988;48.042;7.584;2023-01-10T07:30:08;90.13;-21.54;98.60;;
43385;Laerm;28988;48.042;7.584;2023-01-10T07:32:33;90.14;-16.02;98.60;;
43385;Laerm;28988;48.042;7.584;2023-01-10T07:34:58;90.13;-17.33;98.60;;
43385;Laerm;28988;48.042;7.584;2023-01-10T07:37:24;90.13;-42.24;98.60;;
43385;Laerm;28988;48.042;7.584;2023-01-10T07:39:49;90.13;-16.02;98.60;;
43385;Laerm;28988;48.042;7.584;2023-01-10T07:42:14;90.13;-17.33;98.60;;
43385;Laerm;28988;48.042;7.584;2023-01-10T07:44:39;90.13;-21.54;98.60;;
43385;Laerm;28988;48.042;7.584;2023-01-10T07:47:04;90.13;-42.24;98.60;;
43385;Laerm;28988;48.042;7.584;2023-01-10T07:49:29;90.14;-42.24;98.60;;
43385;Laerm;28988;48.042;7.584;2023-01-10T07:51:55;90.14;-37.56;98.60;;
43385;Laerm;28988;48.042;7.584;2023-01-10T07:54:20;90.13;-37.56;98.60;;
43385;Laerm;28988;48.042;7.584;2023-01-10T07:56:45;90.13;-16.02;98.60;;
43385;Laerm;28988;48.042;7.584;2023-01-10T07:59:14;90.13;-15.33;98.60;;
43385;Laerm;28988;48.042;7.584;2023-01-10T08:01:39;90.13;-42.24;98.60;;
43385;Laerm;28988;48.042;7.584;2023-01-10T08:04:04;90.13;-16.02;98.60;;
43385;Laerm;28988;48.042;7.584;2023-01-10T08:06:30;90.13;-14.66;98.60;;
43385;Laerm;28988;48.042;7.584;2023-01-10T08:08:55;90.14;-21.54;98.60;;
43385;Laerm;28988;48.042;7.584;2023-01-10T08:11:20;90.13;-17.33;98.60;;
43385;Laerm;28988;48.042;7.584;2023-01-10T08:13:45;90.14;-16.02;98.60;;
43385;Laerm;28988;48.042;7.584;2023-01-10T08:16:11;90.13;-37.56;98.60;;
43385;Laerm;28988;48.042;7.584;2023-01-10T08:18:36;90.14;-14.85;98.60;;
43385;Laerm;28988;48.042;7.584;2023-01-10T08:21:03;90.13;-37.56;98.60;;
43385;Laerm;28988;48.042;7.584;2023-01-10T08:23:28;90.13;-14.85;98.60;;
43385;Laerm;28988;48.042;7.584;2023-01-10T08:25:56;90.14;-14.85;98.60;;
43385;Laerm;28988;48.042;7.584;2023-01-10T08:28:21;90.13;-14.66;98.60;;
43385;Laerm;28988;48.042;7.584;2023-01-10T08:30:47;90.13;-16.02;98.60;;
43385;Laerm;28988;48.042;7.584;2023-01-10T08:33:12;90.13;-16.02;98.60;;
43385;Laerm;28988;48.042;7.584;2023-01-10T08:35:38;90.13;-17.33;98.60;;
43385;Laerm;28988;48.042;7.584;2023-01-10T08:38:03;90.13;-37.56;98.60;;
43385;Laerm;28988;48.042;7.584;2023-01-10T08:40:29;90.13;-17.33;98.60;;
43385;Laerm;28988;48.042;7.584;2023-01-10T08:43:04;90.13;-21.54;98.60;;
43385;Laerm;28988;48.042;7.584;2023-01-10T08:45:30;90.13;-14.85;98.60;;
43385;Laerm;28988;48.042;7.584;2023-01-10T08:47:55;90.13;-21.54;98.60;;
43385;Laerm;28988;48.042;7.584;2023-01-10T08:50:21;90.13;-16.02;98.60;;
43385;Laerm;28988;48.042;7.584;2023-01-10T08:52:46;90.13;-20.19;98.60;;
43385;Laerm;28988;48.042;7.584;2023-01-10T08:55:11;90.13;-14.66;98.60;;
43385;Laerm;28988;48.042;7.584;2023-01-10T08:57:36;90.13;-42.24;98.60;;
43385;Laerm;28988;48.042;7.584;2023-01-10T09:00:02;90.13;-21.54;98.60;;
43385;Laerm;28988;48.042;7.584;2023-01-10T09:02:28;90.13;-37.56;98.60;;
43385;Laerm;28988;48.042;7.584;2023-01-10T09:04:53;90.13;-14.85;98.60;;
43385;Laerm;28988;48.042;7.584;2023-01-10T09:07:18;90.13;-16.02;98.60;;
43385;Laerm;28988;48.042;7.584;2023-01-10T09:09:43;90.13;-17.33;98.60;;
43385;Laerm;28988;48.042;7.584;2023-01-10T09:12:09;90.13;-14.85;98.60;;
43385;Laerm;28988;48.042;7.584;2023-01-10T09:14:52;90.13;-14.85;98.60;;
43385;Laerm;28988;48.042;7.584;2023-01-10T09:17:18;90.13;-14.85;98.60;;
43385;Laerm;28988;48.042;7.584;2023-01-10T09:19:43;90.13;-22.78;98.60;;
43385;Laerm;28988;48.042;7.584;2023-01-10T09:22:08;90.13;-14.66;98.60;;
43385;Laerm;28988;48.042;7.584;2023-01-10T09:24:34;90.13;-14.66;98.60;;
43385;Laerm;28988;48.042;7.584;2023-01-10T09:27:01;90.13;-24.25;98.60;;
43385;Laerm;28988;48.042;7.584;2023-01-10T09:29:26;90.13;-14.85;98.60;;
43385;Laerm;28988;48.042;7.584;2023-01-10T09:31:51;90.13;-14.66;98.60;;
43385;Laerm;28988;48.042;7.584;2023-01-10T09:34:16;90.13;-14.66;98.60;;
43385;Laerm;28988;48.042;7.584;2023-01-10T09:36:41;90.13;-17.33;98.60;;
43385;Laerm;28988;48.042;7.584;2023-01-10T09:39:07;90.13;-17.33;98.60;;
43385;Laerm;28988;48.042;7.584;2023-01-10T09:41:36;90.12;-16.02;98.60;;
43385;Laerm;28988;48.042;7.584;2023-01-10T09:44:05;90.13;-15.68;98.66;;
43385;Laerm;28988;48.042;7.584;2023-01-10T09:51:54;90.50;-69.94;99.40;;
43385;Laerm;28988;48.042;7.584;2023-01-10T09:54:40;90.50;-24.09;99.30;;
43385;Laerm;28988;48.042;7.584;2023-01-10T09:57:07;90.30;-29.68;99.11;;
43385;Laerm;28988;48.042;7.584;2023-01-10T09:59:38;90.28;-31.55;99.22;;
43385;Laerm;28988;48.042;7.584;2023-01-10T10:02:21;90.67;-34.28;99.54;;
43385;Laerm;28988;48.042;7.584;2023-01-10T10:07:21;90.31;-33.41;99.24;;
43385;Laerm;28988;48.042;7.584;2023-01-10T10:09:47;90.16;-20.80;98.96;;
43385;Laerm;28988;48.042;7.584;2023-01-10T10:22:17;96.51;-40.39;104.37;;
43385;Laerm;28988;48.042;7.584;2023-01-10T10:27:35;99.34;-20.92;105.96;;
43385;Laerm;28988;48.042;7.584;2023-01-10T10:35:38;91.55;-31.84;103.43;;
43385;Laerm;28988;48.042;7.584;2023-01-10T10:40:58;87.65;-50.46;100.83;;
43385;Laerm;28988;48.042;7.584;2023-01-10T10:43:25;87.26;-28.52;99.57;;
43385;Laerm;28988;48.042;7.584;2023-01-10T10:46:01;86.57;-34.54;101.17;;
43385;Laerm;28988;48.042;7.584;2023-01-10T10:48:30;85.57;-27.38;98.66;;
43385;Laerm;28988;48.042;7.584;2023-01-10T10:51:02;85.12;-31.14;97.60;;
43385;Laerm;28988;48.042;7.584;2023-01-10T10:53:29;84.77;-39.78;96.15;;
43385;Laerm;28988;48.042;7.584;2023-01-10T10:55:55;84.63;-39.78;96.48;;
43385;Laerm;28988;48.042;7.584;2023-01-10T10:58:20;84.55;-39.78;97.34;;
43385;Laerm;28988;48.042;7.584;2023-01-10T11:00:46;84.46;-57.68;95.63;;
43385;Laerm;28988;48.042;7.584;2023-01-10T11:03:23;84.48;-38.86;95.79;;
43385;Laerm;28988;48.042;7.584;2023-01-10T11:05:49;84.48;-34.15;98.02;;
43385;Laerm;28988;48.042;7.584;2023-01-10T11:08:15;84.48;-57.68;96.52;;
43385;Laerm;28988;48.042;7.584;2023-01-10T11:10:54;84.47;-34.98;96.73;;
43385;Laerm;28988;48.042;7.584;2023-01-10T11:15:58;84.45;-38.42;96.42;;
43385;Laerm;28988;48.042;7.584;2023-01-10T11:18:24;84.51;-34.16;96.27;;
43385;Laerm;28988;48.042;7.584;2023-01-10T11:20:57;84.52;-22.86;96.22;;
43385;Laerm;28988;48.042;7.584;2023-01-10T11:23:28;84.57;-57.68;97.09;;
43385;Laerm;28988;48.042;7.584;2023-01-10T11:25:56;84.75;-33.84;96.76;;
43385;Laerm;28988;48.042;7.584;2023-01-10T11:28:27;84.84;-32.81;97.59;;
43385;Laerm;28988;48.042;7.584;2023-01-10T11:30:53;85.00;-39.66;97.01;;
43385;Laerm;28988;48.042;7.584;2023-01-10T11:33:20;85.14;-30.96;97.94;;
43385;Laerm;28988;48.042;7.584;2023-01-10T11:36:07;85.42;-37.31;97.96;;
43385;Laerm;28988;48.042;7.584;2023-01-10T11:38:33;86.13;-29.06;100.38;;
43385;Laerm;28988;48.042;7.584;2023-01-10T11:43:28;92.89;-48.74;104.11;;
43385;Laerm;28988;48.042;7.584;2023-01-10T11:45:55;96.38;-31.51;106.01;;
43385;Laerm;28988;48.042;7.584;2023-01-10T11:48:21;97.23;-24.73;106.14;;
43385;Laerm;28988;48.042;7.584;2023-01-10T11:50:49;94.13;-17.62;104.69;;
43385;Laerm;28988;48.042;7.584;2023-01-10T11:55:59;92.26;-34.63;104.96;;
43385;Laerm;28988;48.042;7.584;2023-01-10T11:58:28;95.43;-34.89;105.24;;
43385;Laerm;28988;48.042;7.584;2023-01-10T12:00:54;95.23;-36.20;105.08;;
43385;Laerm;28988;48.042;7.584;2023-01-10T12:03:21;93.30;-38.40;103.70;;
43385;Laerm;28988;48.042;7.584;2023-01-10T12:05:49;95.81;-34.36;104.78;;
43385;Laerm;28988;48.042;7.584;2023-01-10T12:08:23;95.08;-36.87;104.67;;
43385;Laerm;28988;48.042;7.584;2023-01-10T12:10:55;92.67;-31.69;104.67;;
43385;Laerm;28988;48.042;7.584;2023-01-10T12:13:21;91.58;-29.95;103.36;;
43385;Laerm;28988;48.042;7.584;2023-01-10T12:15:46;91.21;-19.75;103.16;;
43385;Laerm;28988;48.042;7.584;2023-01-10T12:18:13;90.94;-40.87;104.12;;
43385;Laerm;28988;48.042;7.584;2023-01-10T12:20:47;90.15;-34.94;102.20;;
43385;Laerm;28988;48.042;7.584;2023-01-10T12:23:15;88.74;-47.82;103.13;;
43385;Laerm;28988;48.042;7.584;2023-01-10T12:25:42;87.57;-42.18;100.38;;
43385;Laerm;28988;48.042;7.584;2023-01-10T12:28:19;87.38;-44.17;102.48;;
43385;Laerm;28988;48.042;7.584;2023-01-10T12:30:45;86.78;-30.55;103.65;;
43385;Laerm;28988;48.042;7.584;2023-01-10T12:33:15;86.16;-34.97;99.22;;
43385;Laerm;28988;48.042;7.584;2023-01-10T12:35:45;85.76;-49.64;98.46;;
43385;Laerm;28988;48.042;7.584;2023-01-10T12:40:46;86.25;-38.16;101.53;;
43385;Laerm;28988;48.042;7.584;2023-01-10T12:43:14;87.55;-27.66;101.86;;
43385;Laerm;28988;48.042;7.584;2023-01-10T12:46:19;88.57;-27.32;101.72;;
43385;Laerm;28988;48.042;7.584;2023-01-10T12:48:51;90.14;-54.89;102.63;;
43385;Laerm;28988;48.042;7.584;2023-01-10T12:51:19;93.69;-26.04;104.01;;
43385;Laerm;28988;48.042;7.584;2023-01-10T12:53:51;99.28;-77.78;105.66;;
43385;Laerm;28988;48.042;7.584;2023-01-10T12:56:18;100.13;-23.51;105.16;;
43385;Laerm;28988;48.042;7.584;2023-01-10T12:58:45;94.82;-29.97;102.52;;
43385;Laerm;28988;48.042;7.584;2023-01-10T13:01:13;91.46;-29.09;100.82;;
43385;Laerm;28988;48.042;7.584;2023-01-10T13:03:39;90.72;-36.78;100.07;;
43385;Laerm;28988;48.042;7.584;2023-01-10T13:06:04;90.48;-27.74;99.62;;
43385;Laerm;28988;48.042;7.584;2023-01-10T13:08:33;90.36;-26.47;99.56;;
43385;Laerm;28988;48.042;7.584;2023-01-10T13:10:59;90.30;-35.04;99.32;;
43385;Laerm;28988;48.042;7.584;2023-01-10T13:13:31;90.28;-19.32;99.44;;
43385;Laerm;28988;48.042;7.584;2023-01-10T13:19:02;90.19;-27.43;99.03;;
43385;Laerm;28988;48.042;7.584;2023-01-10T13:21:27;90.17;-17.36;99.09;;
43385;Laerm;28988;48.042;7.584;2023-01-10T13:23:56;90.16;-20.15;99.15;;
43385;Laerm;28988;48.042;7.584;2023-01-10T13:26:22;90.16;-17.33;99.06;;
43385;Laerm;28988;48.042;7.584;2023-01-10T13:28:57;90.15;-29.68;99.02;;
43385;Laerm;28988;48.042;7.584;2023-01-10T13:31:32;90.15;-21.54;98.89;;
43385;Laerm;28988;48.042;7.584;2023-01-10T13:36:30;90.14;-20.15;98.86;;
43385;Laerm;28988;48.042;7.584;2023-01-10T13:39:00;90.15;-27.22;98.86;;
43385;Laerm;28988;48.042;7.584;2023-01-10T13:44:29;90.14;-21.54;98.78;;
43385;Laerm;28988;48.042;7.584;2023-01-10T13:46:54;90.14;-20.15;99.05;;
43385;Laerm;28988;48.042;7.584;2023-01-10T13:49:23;90.14;-23.55;98.81;;
43385;Laerm;28988;48.042;7.584;2023-01-10T13:54:33;90.14;-14.85;98.77;;
43385;Laerm;28988;48.042;7.584;2023-01-10T13:56:58;90.13;-17.01;98.79;;
43385;Laerm;28988;48.042;7.584;2023-01-10T14:02:20;90.14;-31.55;98.71;;
43385;Laerm;28988;48.042;7.584;2023-01-10T14:05:13;90.14;-14.85;98.80;;
43385;Laerm;28988;48.042;7.584;2023-01-10T14:07:46;90.14;-21.54;98.76;;
43385;Laerm;28988;48.042;7.584;2023-01-10T14:10:20;90.14;-27.71;98.76;;
43385;Laerm;28988;48.042;7.584;2023-01-10T14:12:56;90.14;-21.54;98.75;;
43385;Laerm;28988;48.042;7.584;2023-01-10T14:15:24;90.14;-24.61;98.81;;
43385;Laerm;28988;48.042;7.584;2023-01-10T14:17:52;90.14;-14.85;98.88;;
43385;Laerm;28988;48.042;7.584;2023-01-10T14:20:19;90.14;-16.02;98.71;;
43385;Laerm;28988;48.042;7.584;2023-01-10T14:23:03;90.14;-15.68;98.66;;
43385;Laerm;28988;48.042;7.584;2023-01-10T14:25:31;90.13;-17.88;98.71;;
43385;Laerm;28988;48.042;7.584;2023-01-10T14:27:57;90.13;-21.54;98.82;;
43385;Laerm;28988;48.042;7.584;2023-01-10T14:30:27;90.14;-17.26;98.78;;
43385;Laerm;28988;48.042;7.584;2023-01-10T14:32:54;90.14;-14.85;98.94;;
43385;Laerm;28988;48.042;7.584;2023-01-10T14:35:21;90.14;-15.68;98.81;;
43385;Laerm;28988;48.042;7.584;2023-01-10T14:42:43;90.13;-16.02;98.83;;
43385;Laerm;28988;48.042;7.584;2023-01-10T14:45:25;90.14;-14.85;98.71;;
43385;Laerm;28988;48.042;7.584;2023-01-10T14:47:53;90.14;-14.85;98.75;;
43385;Laerm;28988;48.042;7.584;2023-01-10T14:50:22;90.14;-14.85;98.84;;
43385;Laerm;28988;48.042;7.584;2023-01-10T14:52:48;90.13;-16.03;98.75;;
43385;Laerm;28988;48.042;7.584;2023-01-10T14:55:14;90.14;-20.23;98.86;;
43385;Laerm;28988;48.042;7.584;2023-01-10T14:57:51;90.13;-5.91;98.66;;
43385;Laerm;28988;48.042;7.584;2023-01-10T15:00:17;90.13;-24.94;98.75;;
43385;Laerm;28988;48.042;7.584;2023-01-10T15:02:45;90.13;-21.54;98.71;;
43385;Laerm;28988;48.042;7.584;2023-01-10T15:05:15;90.14;-14.85;98.71;;
43385;Laerm;28988;48.042;7.584;2023-01-10T15:07:41;90.13;-31.03;98.70;;
43385;Laerm;28988;48.042;7.584;2023-01-10T15:10:18;90.14;-16.02;98.71;;